Time,TemperatureF,DewpointF,PressureIn,WindDirection,WindDirectionDegrees,WindSpeedMPH,WindSpeedGustMPH,Humidity,HourlyPrecipIn,Conditions,Clouds,dailyrainin,SoftwareType,DateUTC
2013-07-18 00:15:00,58.3,48.6,30.33,SE,135,3.7,-999.0,70,-99.99,,,0.00,Acu-Link.com,2013-07-18 06:15:00,
2013-07-18 00:30:00,58.3,48.6,30.32,SSE,157,2.7,-999.0,70,-99.99,,,0.00,Acu-Link.com,2013-07-18 06:30:00,
2013-07-18 00:45:00,57.0,47.7,30.33,West,270,1.1,-999.0,71,-99.99,,,0.00,Acu-Link.com,2013-07-18 06:45:00,
2013-07-18 01:00:00,55.8,47.3,30.33,West,270,0.0,-999.0,73,-99.99,,,0.00,Acu-Link.com,2013-07-18 07:00:00,
2013-07-18 01:15:00,55.2,47.1,30.33,SSE,157,1.7,-999.0,74,-99.99,,,0.00,Acu-Link.com,2013-07-18 07:15:00,
2013-07-18 01:30:00,54.3,46.5,30.33,SSE,157,3.2,-999.0,75,-99.99,,,0.00,Acu-Link.com,2013-07-18 07:30:00,
2013-07-18 01:46:00,53.6,46.2,30.33,SSE,157,2.2,-999.0,76,-99.99,,,0.00,Acu-Link.com,2013-07-18 07:46:00,
2013-07-18 02:01:00,52.5,46.2,30.33,SSE,157,1.7,-999.0,79,-99.99,,,0.00,Acu-Link.com,2013-07-18 08:01:00,
2013-07-18 02:16:00,52.5,46.2,30.32,North,0,2.2,-999.0,79,-99.99,,,0.00,Acu-Link.com,2013-07-18 08:16:00,
2013-07-18 02:32:00,51.8,45.8,30.32,North,0,0.0,-999.0,80,-99.99,,,0.00,Acu-Link.com,2013-07-18 08:32:00,
2013-07-18 02:47:00,51.4,45.4,30.32,SSE,157,0.0,-999.0,80,-99.99,,,0.00,Acu-Link.com,2013-07-18 08:47:00,
2013-07-18 03:02:00,50.9,45.3,30.31,SSE,157,2.2,-999.0,81,-99.99,,,0.00,Acu-Link.com,2013-07-18 09:02:00,
2013-07-18 03:17:00,50.9,45.3,30.31,SSE,157,1.7,-999.0,81,-99.99,,,0.00,Acu-Link.com,2013-07-18 09:17:00,
2013-07-18 03:32:00,50.4,45.1,30.31,SSE,157,0.0,-999.0,82,-99.99,,,0.00,Acu-Link.com,2013-07-18 09:32:00,
2013-07-18 03:47:00,50.4,45.1,30.31,SSE,157,4.2,-999.0,82,-99.99,,,0.00,Acu-Link.com,2013-07-18 09:47:00,
2013-07-18 04:02:00,50.4,45.4,30.30,SSE,157,2.7,-999.0,83,-99.99,,,0.00,Acu-Link.com,2013-07-18 10:02:00,
2013-07-18 04:17:00,50.0,45.0,30.31,SSE,157,0.0,-999.0,83,-99.99,,,0.00,Acu-Link.com,2013-07-18 10:17:00,
2013-07-18 04:33:00,50.4,45.4,30.31,SSE,157,1.7,-999.0,83,-99.99,,,0.00,Acu-Link.com,2013-07-18 10:33:00,
2013-07-18 04:48:00,50.5,45.5,30.31,SSE,157,0.0,-999.0,83,-99.99,,,0.00,Acu-Link.com,2013-07-18 10:48:00,
2013-07-18 05:03:00,50.4,45.8,30.31,SSE,157,0.0,-999.0,84,-99.99,,,0.00,Acu-Link.com,2013-07-18 11:03:00,
2013-07-18 05:19:00,51.1,46.4,30.32,SSE,157,2.7,-999.0,84,-99.99,,,0.00,Acu-Link.com,2013-07-18 11:19:00,
2013-07-18 05:34:00,51.1,45.8,30.31,SSE,157,1.1,-999.0,82,-99.99,,,0.00,Acu-Link.com,2013-07-18 11:34:00,
2013-07-18 05:49:00,50.5,45.2,30.32,SSE,157,0.0,-999.0,82,-99.99,,,0.00,Acu-Link.com,2013-07-18 11:49:00,
2013-07-18 06:05:00,49.8,44.8,30.32,SSE,157,0.0,-999.0,83,-99.99,,,0.00,Acu-Link.com,2013-07-18 12:05:00,
2013-07-18 06:20:00,49.8,45.2,30.32,SSE,157,0.0,-999.0,84,-99.99,,,0.00,Acu-Link.com,2013-07-18 12:20:00,
2013-07-18 06:35:00,50.9,46.6,30.32,SSE,157,0.0,-999.0,85,-99.99,,,0.00,Acu-Link.com,2013-07-18 12:35:00,
2013-07-18 06:50:00,52.0,47.9,30.32,SSE,157,0.0,-999.0,86,-99.99,,,0.00,Acu-Link.com,2013-07-18 12:50:00,
2013-07-18 07:05:00,53.1,48.7,30.33,SSE,157,2.2,-999.0,85,-99.99,,,0.00,Acu-Link.com,2013-07-18 13:05:00,
2013-07-18 07:21:00,58.3,52.5,30.32,SSE,157,0.0,-999.0,81,-99.99,,,0.00,Acu-Link.com,2013-07-18 13:21:00,
2013-07-18 07:36:00,64.0,54.4,30.32,NW,315,1.7,-999.0,71,-99.99,,,0.00,Acu-Link.com,2013-07-18 13:36:00,
2013-07-18 07:51:00,66.7,55.0,30.32,West,270,2.2,-999.0,66,-99.99,,,0.00,Acu-Link.com,2013-07-18 13:51:00,
2013-07-18 08:07:00,68.9,55.3,30.31,West,270,1.7,-999.0,62,-99.99,,,0.00,Acu-Link.com,2013-07-18 14:07:00,
2013-07-18 08:22:00,70.3,55.3,30.31,NNE,22,2.2,-999.0,59,-99.99,,,0.00,Acu-Link.com,2013-07-18 14:22:00,
2013-07-18 08:37:00,70.9,54.9,30.30,NNW,337,2.7,-999.0,57,-99.99,,,0.00,Acu-Link.com,2013-07-18 14:37:00,
2013-07-18 08:52:00,71.8,54.8,30.31,NNE,22,4.2,-999.0,55,-99.99,,,0.00,Acu-Link.com,2013-07-18 14:52:00,
2013-07-18 09:07:00,73.6,55.4,30.30,NNE,22,2.2,-999.0,53,-99.99,,,0.00,Acu-Link.com,2013-07-18 15:07:00,
2013-07-18 09:23:00,75.0,55.1,30.29,WSW,247,2.7,-999.0,50,-99.99,,,0.00,Acu-Link.com,2013-07-18 15:23:00,
2013-07-18 09:38:00,69.1,52.7,30.28,NNW,337,2.7,-999.0,56,-99.99,,,0.00,Acu-Link.com,2013-07-18 15:38:00,
2013-07-18 09:53:00,70.2,52.3,30.28,West,270,2.7,-999.0,53,-99.99,,,0.00,Acu-Link.com,2013-07-18 15:53:00,
2013-07-18 10:08:00,71.2,53.2,30.27,West,270,3.2,-999.0,53,-99.99,,,0.00,Acu-Link.com,2013-07-18 16:08:00,
2013-07-18 10:23:00,72.1,53.5,30.27,NW,315,2.7,-999.0,52,-99.99,,,0.00,Acu-Link.com,2013-07-18 16:23:00,
2013-07-18 10:38:00,72.3,53.1,30.26,WNW,292,4.2,-999.0,51,-99.99,,,0.00,Acu-Link.com,2013-07-18 16:38:00,
2013-07-18 10:54:00,73.9,54.1,30.25,WNW,292,3.2,-999.0,50,-99.99,,,0.00,Acu-Link.com,2013-07-18 16:54:00,
2013-07-18 11:09:00,74.3,53.3,30.25,West,270,2.7,-999.0,48,-99.99,,,0.00,Acu-Link.com,2013-07-18 17:09:00,
2013-07-18 11:24:00,75.2,53.0,30.25,South,180,5.8,-999.0,46,-99.99,,,0.00,Acu-Link.com,2013-07-18 17:24:00,
2013-07-18 11:39:00,76.3,51.5,30.23,ESE,112,0.0,-999.0,42,-99.99,,,0.00,Acu-Link.com,2013-07-18 17:39:00,
2013-07-18 11:55:00,77.5,52.6,30.23,West,270,4.7,-999.0,42,-99.99,,,0.00,Acu-Link.com,2013-07-18 17:55:00,
2013-07-18 12:10:00,77.7,52.1,30.22,SW,225,2.7,-999.0,41,-99.99,,,0.00,Acu-Link.com,2013-07-18 18:10:00,
2013-07-18 12:25:00,78.3,52.6,30.22,NW,315,4.7,-999.0,41,-99.99,,,0.00,Acu-Link.com,2013-07-18 18:25:00,
2013-07-18 12:41:00,79.5,52.4,30.21,SW,225,3.7,-999.0,39,-99.99,,,0.00,Acu-Link.com,2013-07-18 18:41:00,
2013-07-18 12:56:00,79.0,51.2,30.19,ENE,67,2.7,-999.0,38,-99.99,,,0.00,Acu-Link.com,2013-07-18 18:56:00,
2013-07-18 13:11:00,81.0,53.0,30.19,North,0,6.3,-999.0,38,-99.99,,,0.00,Acu-Link.com,2013-07-18 19:11:00,
2013-07-18 13:26:00,82.9,53.9,30.18,WNW,292,4.7,-999.0,37,-99.99,,,0.00,Acu-Link.com,2013-07-18 19:26:00,
2013-07-18 13:41:00,84.4,54.5,30.17,WSW,247,3.2,-999.0,36,-99.99,,,0.00,Acu-Link.com,2013-07-18 19:41:00,
2013-07-18 13:56:00,85.1,52.7,30.17,ENE,67,5.3,-999.0,33,-99.99,,,0.00,Acu-Link.com,2013-07-18 19:56:00,
2013-07-18 14:11:00,83.8,50.8,30.17,NNW,337,2.2,-999.0,32,-99.99,,,0.00,Acu-Link.com,2013-07-18 20:11:00,
2013-07-18 14:27:00,81.3,51.0,30.16,SW,225,3.7,-999.0,35,-99.99,,,0.00,Acu-Link.com,2013-07-18 20:27:00,
2013-07-18 14:42:00,80.4,50.2,30.15,SSW,202,3.7,-999.0,35,-99.99,,,0.00,Acu-Link.com,2013-07-18 20:42:00,
2013-07-18 14:57:00,80.4,50.2,30.15,WNW,292,6.3,-999.0,35,-99.99,,,0.00,Acu-Link.com,2013-07-18 20:57:00,
2013-07-18 15:12:00,80.1,50.7,30.15,NNE,22,3.2,-999.0,36,-99.99,,,0.00,Acu-Link.com,2013-07-18 21:12:00,
2013-07-18 15:27:00,80.4,50.2,30.14,WNW,292,1.7,-999.0,35,-99.99,,,0.00,Acu-Link.com,2013-07-18 21:27:00,
2013-07-18 15:42:00,80.6,51.9,30.14,WNW,292,3.7,-999.0,37,-99.99,,,0.00,Acu-Link.com,2013-07-18 21:42:00,
2013-07-18 15:58:00,80.4,51.7,30.13,South,180,6.3,-999.0,37,-99.99,,,0.00,Acu-Link.com,2013-07-18 21:58:00,
2013-07-18 16:13:00,79.5,52.4,30.13,South,180,8.9,-999.0,39,-99.99,,,0.00,Acu-Link.com,2013-07-18 22:13:00,
2013-07-18 16:28:00,80.8,52.8,30.12,South,180,5.3,-999.0,38,-99.99,,,0.00,Acu-Link.com,2013-07-18 22:28:00,
2013-07-18 16:44:00,83.5,54.5,30.11,SSE,157,5.8,-999.0,37,-99.99,,,0.00,Acu-Link.com,2013-07-18 22:44:00,
2013-07-18 16:59:00,82.8,53.1,30.09,SSE,157,9.4,-999.0,36,-99.99,,,0.00,Acu-Link.com,2013-07-18 22:59:00,
2013-07-18 17:16:00,82.4,52.7,30.10,SSW,202,3.2,-999.0,36,-99.99,,,0.00,Acu-Link.com,2013-07-18 23:16:00,
2013-07-18 17:31:00,82.2,52.6,30.08,South,180,5.8,-999.0,36,-99.99,,,0.00,Acu-Link.com,2013-07-18 23:31:00,
2013-07-18 17:46:00,82.0,52.4,30.08,SSE,157,3.7,-999.0,36,-99.99,,,0.00,Acu-Link.com,2013-07-18 23:46:00,
2013-07-18 18:01:00,81.9,52.3,30.08,South,180,2.7,-999.0,36,-99.99,,,0.00,Acu-Link.com,2013-07-19 00:01:00,
2013-07-18 18:16:00,83.5,52.9,30.09,SSW,202,3.2,-999.0,35,-99.99,,,0.00,Acu-Link.com,2013-07-19 00:16:00,
2013-07-18 18:32:00,82.8,52.3,30.07,SSE,157,5.8,-999.0,35,-99.99,,,0.00,Acu-Link.com,2013-07-19 00:32:00,
2013-07-18 18:47:00,82.0,52.4,30.09,West,270,2.7,-999.0,36,-99.99,,,0.00,Acu-Link.com,2013-07-19 00:47:00,
2013-07-18 19:03:00,80.2,50.8,30.09,South,180,2.7,-999.0,36,-99.99,,,0.00,Acu-Link.com,2013-07-19 01:03:00,
2013-07-18 19:18:00,82.9,52.4,30.09,WNW,292,3.2,-999.0,35,-99.99,,,0.00,Acu-Link.com,2013-07-19 01:18:00,
2013-07-18 19:33:00,80.8,51.3,30.09,WNW,292,3.7,-999.0,36,-99.99,,,0.00,Acu-Link.com,2013-07-19 01:33:00,
2013-07-18 19:48:00,77.7,50.1,30.10,SW,225,6.8,-999.0,38,-99.99,,,0.00,Acu-Link.com,2013-07-19 01:48:00,
2013-07-18 20:03:00,75.9,50.5,30.11,WSW,247,7.3,-999.0,41,-99.99,,,0.00,Acu-Link.com,2013-07-19 02:03:00,
2013-07-18 20:18:00,75.0,50.3,30.11,SSW,202,7.3,-999.0,42,-99.99,,,0.00,Acu-Link.com,2013-07-19 02:18:00,
2013-07-18 20:34:00,73.9,50.0,30.12,SSW,202,2.7,-999.0,43,-99.99,,,0.00,Acu-Link.com,2013-07-19 02:34:00,
2013-07-18 20:49:00,72.3,50.3,30.13,SSE,157,2.2,-999.0,46,-99.99,,,0.00,Acu-Link.com,2013-07-19 02:49:00,
2013-07-18 21:04:00,70.2,50.7,30.15,NE,45,3.2,-999.0,50,-99.99,,,0.00,Acu-Link.com,2013-07-19 03:04:00,
2013-07-18 21:19:00,68.4,50.6,30.13,ESE,112,1.7,-999.0,53,-99.99,,,0.00,Acu-Link.com,2013-07-19 03:19:00,
2013-07-18 21:34:00,66.6,50.4,30.16,ESE,112,0.0,-999.0,56,-99.99,,,0.00,Acu-Link.com,2013-07-19 03:34:00,
2013-07-18 21:49:00,65.3,50.1,30.17,ESE,112,0.0,-999.0,58,-99.99,,,0.00,Acu-Link.com,2013-07-19 03:49:00,
2013-07-18 22:05:00,66.2,51.0,30.18,SE,135,2.7,-999.0,58,-99.99,,,0.00,Acu-Link.com,2013-07-19 04:05:00,
2013-07-18 22:20:00,68.0,52.7,30.18,West,270,5.8,-999.0,58,-99.99,,,0.00,Acu-Link.com,2013-07-19 04:20:00,
2013-07-18 22:35:00,66.7,51.9,30.18,NNE,22,0.0,-999.0,59,-99.99,,,0.00,Acu-Link.com,2013-07-19 04:35:00,
2013-07-18 22:50:00,65.5,51.7,30.19,SE,135,2.7,-999.0,61,-99.99,,,0.00,Acu-Link.com,2013-07-19 04:50:00,
2013-07-18 23:05:00,64.9,52.0,30.20,South,180,2.7,-999.0,63,-99.99,,,0.00,Acu-Link.com,2013-07-19 05:05:00,
2013-07-18 23:21:00,64.8,51.9,30.20,South,180,4.2,-999.0,63,-99.99,,,0.00,Acu-Link.com,2013-07-19 05:21:00,
2013-07-18 23:36:00,65.1,52.2,30.20,SSW,202,3.7,-999.0,63,-99.99,,,0.00,Acu-Link.com,2013-07-19 05:36:00,
2013-07-18 23:51:00,64.0,51.1,30.20,SSW,202,4.7,-999.0,63,-99.99,,,0.00,Acu-Link.com,2013-07-19 05:51:00,